Time;durP1;ratioP1;P1;durP2;ratioP2;P2;SDS_P1;SDS_P2;PMS_P1;PMS_P2;Temp;Humidity;BMP_temperature;BMP_pressure;BME280_temperature;BME280_humidity;BME280_pressure;Samples;Min_cycle;Max_cycle;Signal;HPM_P1;HPM_P2
2022/12/20 00:01:18;;;;;;;8.18;5.07;;;;;;;;;;4966281;28;20051;-71
2022/12/20 00:04:05;;;;;;;6.80;5.00;;;;;;;;;;4950935;28;20437;-72
2022/12/20 00:06:51;;;;;;;7.93;4.50;;;;;;;;;;4955922;28;20070;-72
2022/12/20 00:09:37;;;;;;;7.53;5.13;;;;;;;;;;4955723;28;20057;-72
2022/12/20 00:12:24;;;;;;;8.63;4.90;;;;;;;;;;4968651;28;20043;-72
2022/12/20 00:15:10;;;;;;;7.70;4.10;;;;;;;;;;4951805;28;20105;-73
2022/12/20 00:17:57;;;;;;;5.03;4.50;;;;;;;;;;4949617;28;20050;-71
2022/12/20 00:20:43;;;;;;;10.57;5.25;;;;;;;;;;4966772;28;20071;-72
2022/12/20 00:23:29;;;;;;;9.18;4.57;;;;;;;;;;4962091;28;21827;-72
2022/12/20 00:26:17;;;;;;;6.97;4.18;;;;;;;;;;4964621;28;20046;-72
2022/12/20 00:29:04;;;;;;;5.68;4.50;;;;;;;;;;4965798;28;20039;-72
2022/12/20 00:31:51;;;;;;;5.88;4.57;;;;;;;;;;4966736;28;20051;-72
2022/12/20 00:34:37;;;;;;;6.35;4.20;;;;;;;;;;4950307;28;20054;-72
2022/12/20 00:37:23;;;;;;;6.90;4.35;;;;;;;;;;4952768;28;20772;-72
2022/12/20 00:40:10;;;;;;;7.40;3.75;;;;;;;;;;4951566;28;20050;-72
2022/12/20 00:42:56;;;;;;;6.63;4.25;;;;;;;;;;4967595;28;20117;-72
2022/12/20 00:45:42;;;;;;;5.55;4.35;;;;;;;;;;4968537;28;20055;-72
2022/12/20 00:48:29;;;;;;;6.25;4.28;;;;;;;;;;4969636;28;20054;-72
2022/12/20 00:51:20;;;;;;;7.80;4.45;;;;;;;;;;4975021;28;22209;-72
2022/12/20 00:54:06;;;;;;;6.43;4.05;;;;;;;;;;4955311;28;20046;-72
2022/12/20 00:56:53;;;;;;;7.93;4.32;;;;;;;;;;4973166;28;20065;-72
2022/12/20 00:59:39;;;;;;;4.95;4.25;;;;;;;;;;4956473;28;20061;-72
2022/12/20 01:02:25;;;;;;;7.35;3.72;;;;;;;;;;4958491;28;20229;-72
2022/12/20 01:05:12;;;;;;;9.68;3.97;;;;;;;;;;4955703;28;20054;-72
2022/12/20 01:07:58;;;;;;;6.60;4.38;;;;;;;;;;4972125;28;20133;-72
2022/12/20 01:10:44;;;;;;;5.20;3.78;;;;;;;;;;4954782;28;20039;-72
2022/12/20 01:13:32;;;;;;;5.47;3.88;;;;;;;;;;4957507;28;20054;-72
2022/12/20 01:16:19;;;;;;;5.95;3.80;;;;;;;;;;4957418;28;20066;-72
2022/12/20 01:19:07;;;;;;;8.25;4.15;;;;;;;;;;4968577;28;20035;-72
2022/12/20 01:21:53;;;;;;;6.78;3.80;;;;;;;;;;4956393;28;20055;-72
2022/12/20 01:24:39;;;;;;;5.65;4.13;;;;;;;;;;4967981;28;20765;-72
2022/12/20 01:27:26;;;;;;;5.38;3.88;;;;;;;;;;4957539;28;20546;-72
2022/12/20 01:30:12;;;;;;;5.10;3.90;;;;;;;;;;4970415;28;20034;-72
2022/12/20 01:32:59;;;;;;;5.25;3.80;;;;;;;;;;4958172;28;20444;-72
2022/12/20 01:35:58;;;;;;;6.25;4.00;;;;;;;;;;4976133;28;20460;-72
2022/12/20 01:38:44;;;;;;;4.75;3.55;;;;;;;;;;4969231;28;20054;-72
2022/12/20 01:41:32;;;;;;;6.60;3.97;;;;;;;;;;4974267;28;20051;-72
2022/12/20 01:44:18;;;;;;;7.25;3.90;;;;;;;;;;4965222;28;20047;-72
2022/12/20 01:47:05;;;;;;;5.70;4.05;;;;;;;;;;4952553;28;20489;-72
2022/12/20 01:49:53;;;;;;;5.07;3.70;;;;;;;;;;4970843;28;20054;-72
2022/12/20 01:52:42;;;;;;;4.93;3.50;;;;;;;;;;4971294;28;20051;-72
2022/12/20 01:55:28;;;;;;;5.78;3.83;;;;;;;;;;4955409;28;20448;-72
2022/12/20 01:58:17;;;;;;;4.60;3.55;;;;;;;;;;4967568;28;20086;-72
2022/12/20 02:01:04;;;;;;;4.82;3.47;;;;;;;;;;4972911;28;20043;-72
2022/12/20 02:03:51;;;;;;;8.10;3.90;;;;;;;;;;4973710;28;20567;-72
2022/12/20 02:06:37;;;;;;;5.85;3.72;;;;;;;;;;4967415;28;20117;-72
2022/12/20 02:09:24;;;;;;;6.25;3.60;;;;;;;;;;4954715;28;20097;-72
2022/12/20 02:12:13;;;;;;;6.15;3.70;;;;;;;;;;4967986;28;20638;-72
2022/12/20 02:15:21;;;;;;;6.78;3.60;;;;;;;;;;4971188;28;21110;-72
2022/12/20 02:18:17;;;;;;;4.32;3.30;;;;;;;;;;4952244;28;20133;-72
2022/12/20 02:21:09;;;;;;;5.10;3.63;;;;;;;;;;4968104;28;20038;-72
2022/12/20 02:24:18;;;;;;;5.78;3.42;;;;;;;;;;4952829;28;20042;-72
2022/12/20 02:27:04;;;;;;;5.28;3.40;;;;;;;;;;4954631;28;20038;-72
2022/12/20 02:29:58;;;;;;;6.05;3.65;;;;;;;;;;4971310;28;20142;-71
2022/12/20 02:32:44;;;;;;;4.25;3.33;;;;;;;;;;4951854;28;20054;-72
2022/12/20 02:35:32;;;;;;;4.68;3.35;;;;;;;;;;4969801;28;20074;-71
2022/12/20 02:38:29;;;;;;;4.82;3.63;;;;;;;;;;4952022;28;20425;-71
2022/12/20 02:41:24;;;;;;;5.63;3.90;;;;;;;;;;4952247;28;20565;-71
2022/12/20 02:47:23;;;;;;;7.10;3.95;;;;;;;;;;4952979;28;20054;-71
2022/12/20 02:50:10;;;;;;;6.20;3.58;;;;;;;;;;4963509;28;20161;-72
2022/12/20 02:52:57;;;;;;;6.18;3.78;;;;;;;;;;4966692;28;20097;-71
2022/12/20 02:55:52;;;;;;;6.05;3.67;;;;;;;;;;4951693;28;20061;-71
2022/12/20 02:58:51;;;;;;;6.18;4.20;;;;;;;;;;4969982;28;20038;-71
2022/12/20 03:01:40;;;;;;;5.00;3.70;;;;;;;;;;4970744;28;20057;-71
2022/12/20 03:04:28;;;;;;;6.50;4.03;;;;;;;;;;4951543;28;20042;-71
2022/12/20 03:07:15;;;;;;;6.13;4.30;;;;;;;;;;4950360;28;20150;-71
2022/12/20 03:10:01;;;;;;;6.20;4.30;;;;;;;;;;4966131;28;20057;-70
2022/12/20 03:12:48;;;;;;;5.90;4.70;;;;;;;;;;4968371;28;20062;-70
2022/12/20 03:15:34;;;;;;;5.50;4.18;;;;;;;;;;4966689;28;20046;-70
2022/12/20 03:18:20;;;;;;;6.57;4.60;;;;;;;;;;4951528;28;20062;-70
2022/12/20 03:21:07;;;;;;;8.98;4.70;;;;;;;;;;4970106;28;20043;-70
2022/12/20 03:23:53;;;;;;;6.63;4.68;;;;;;;;;;4969654;28;20043;-70
2022/12/20 03:26:40;;;;;;;7.15;4.35;;;;;;;;;;4967168;28;20066;-70
2022/12/20 03:29:26;;;;;;;5.95;4.22;;;;;;;;;;4971748;28;20046;-70
2022/12/20 03:32:13;;;;;;;7.22;4.78;;;;;;;;;;4967411;28;20054;-70
2022/12/20 03:34:59;;;;;;;6.07;4.70;;;;;;;;;;4950464;28;20061;-70
2022/12/20 03:37:45;;;;;;;5.93;4.93;;;;;;;;;;4950076;28;20062;-70
2022/12/20 03:40:32;;;;;;;7.13;4.80;;;;;;;;;;4968562;28;20058;-70
2022/12/20 03:43:18;;;;;;;9.38;4.88;;;;;;;;;;4965979;28;20133;-70
2022/12/20 03:46:04;;;;;;;7.25;4.80;;;;;;;;;;4954203;28;20129;-70
2022/12/20 03:48:51;;;;;;;8.50;4.50;;;;;;;;;;4951805;28;20425;-70
2022/12/20 03:51:37;;;;;;;7.25;4.70;;;;;;;;;;4952326;28;20501;-70
2022/12/20 03:54:23;;;;;;;6.50;5.15;;;;;;;;;;4950718;28;20579;-70
2022/12/20 03:57:10;;;;;;;5.63;4.68;;;;;;;;;;4969254;28;20464;-70
2022/12/20 03:59:56;;;;;;;10.02;4.85;;;;;;;;;;4965430;28;20509;-70
2022/12/20 04:02:42;;;;;;;5.65;4.55;;;;;;;;;;4954637;28;20051;-70
2022/12/20 04:05:28;;;;;;;6.35;4.82;;;;;;;;;;4969735;28;20388;-70
2022/12/20 04:08:15;;;;;;;7.00;4.85;;;;;;;;;;4970978;28;20134;-70
2022/12/20 04:11:16;;;;;;;6.47;4.97;;;;;;;;;;4969162;28;20695;-70
2022/12/20 04:14:02;;;;;;;9.45;5.05;;;;;;;;;;4969710;28;20045;-70
2022/12/20 04:16:49;;;;;;;7.82;4.88;;;;;;;;;;4953142;28;20042;-70
2022/12/20 04:19:35;;;;;;;8.82;5.57;;;;;;;;;;4955685;28;20046;-69
2022/12/20 04:22:22;;;;;;;6.45;5.05;;;;;;;;;;4957082;28;20054;-70
2022/12/20 04:25:08;;;;;;;7.72;5.05;;;;;;;;;;4979341;28;20046;-70
2022/12/20 04:27:54;;;;;;;6.38;5.10;;;;;;;;;;4975007;28;20528;-70
2022/12/20 04:30:41;;;;;;;7.80;5.40;;;;;;;;;;4973473;28;20428;-70
2022/12/20 04:33:27;;;;;;;6.47;4.97;;;;;;;;;;4971497;28;20563;-70
2022/12/20 04:36:13;;;;;;;7.97;5.28;;;;;;;;;;4970267;28;20058;-70
2022/12/20 04:39:00;;;;;;;7.63;4.50;;;;;;;;;;4968947;28;20085;-70
2022/12/20 04:41:46;;;;;;;9.07;5.50;;;;;;;;;;4968837;28;20057;-70
2022/12/20 04:44:33;;;;;;;6.25;5.13;;;;;;;;;;4957569;28;20185;-70
2022/12/20 04:47:19;;;;;;;8.10;5.18;;;;;;;;;;4959842;28;20104;-70
2022/12/20 04:50:06;;;;;;;8.90;5.45;;;;;;;;;;4960311;28;20121;-70
2022/12/20 04:55:57;;;;;;;6.25;4.70;;;;;;;;;;4970483;28;20042;-70
2022/12/20 04:58:44;;;;;;;6.13;4.70;;;;;;;;;;4961420;28;20055;-70
2022/12/20 05:01:30;;;;;;;7.03;4.68;;;;;;;;;;4958283;28;20050;-70
2022/12/20 05:04:16;;;;;;;6.03;4.57;;;;;;;;;;4979718;28;20054;-70
2022/12/20 05:07:03;;;;;;;5.47;4.50;;;;;;;;;;4969605;28;20043;-70
2022/12/20 05:09:49;;;;;;;8.63;5.00;;;;;;;;;;4973901;28;20542;-70
2022/12/20 05:12:35;;;;;;;6.50;4.60;;;;;;;;;;4955047;28;20081;-70
2022/12/20 05:15:22;;;;;;;7.68;4.28;;;;;;;;;;4958020;28;20519;-71
2022/12/20 05:18:08;;;;;;;7.45;4.30;;;;;;;;;;4970985;28;20383;-71
2022/12/20 05:27:05;;;;;;;4.75;3.85;;;;;;;;;;4973677;28;20082;-71
2022/12/20 05:29:51;;;;;;;7.78;4.40;;;;;;;;;;4969445;28;20341;-71
2022/12/20 05:32:37;;;;;;;7.07;4.03;;;;;;;;;;4970247;28;20054;-70
2022/12/20 05:35:24;;;;;;;9.15;4.05;;;;;;;;;;4970723;28;20067;-70
2022/12/20 05:38:10;;;;;;;6.28;3.50;;;;;;;;;;4968334;28;20520;-71
2022/12/20 05:40:56;;;;;;;6.70;4.10;;;;;;;;;;4952379;28;20497;-71
2022/12/20 05:43:43;;;;;;;6.43;3.85;;;;;;;;;;4973934;28;20524;-71
2022/12/20 05:46:29;;;;;;;5.60;3.65;;;;;;;;;;4969878;28;20445;-70
2022/12/20 05:49:15;;;;;;;8.18;3.72;;;;;;;;;;4953753;28;20393;-70
2022/12/20 05:52:02;;;;;;;5.22;3.75;;;;;;;;;;4967226;28;20116;-71
2022/12/20 05:54:48;;;;;;;6.20;3.97;;;;;;;;;;4973327;28;20069;-71
2022/12/20 05:57:35;;;;;;;5.55;3.70;;;;;;;;;;4970821;28;20081;-71
2022/12/20 06:00:21;;;;;;;6.35;3.88;;;;;;;;;;4968928;28;20043;-71
2022/12/20 06:03:08;;;;;;;5.30;3.90;;;;;;;;;;4969320;28;20178;-71
2022/12/20 06:05:55;;;;;;;7.07;3.95;;;;;;;;;;4953506;28;20058;-71
2022/12/20 06:08:41;;;;;;;7.85;3.70;;;;;;;;;;4969463;28;20047;-71
2022/12/20 06:11:27;;;;;;;7.68;3.88;;;;;;;;;;4955541;28;20137;-71
2022/12/20 06:14:14;;;;;;;5.57;3.45;;;;;;;;;;4955870;28;20053;-71
2022/12/20 06:17:00;;;;;;;5.10;3.65;;;;;;;;;;4970210;28;20130;-71
2022/12/20 06:19:47;;;;;;;7.13;3.85;;;;;;;;;;4969864;28;20046;-71
2022/12/20 06:22:33;;;;;;;6.25;3.70;;;;;;;;;;4954374;28;20209;-71
2022/12/20 06:25:20;;;;;;;5.40;3.28;;;;;;;;;;4957242;28;20101;-71
2022/12/20 06:28:06;;;;;;;7.00;3.70;;;;;;;;;;4969861;28;20126;-71
2022/12/20 06:30:53;;;;;;;4.80;3.72;;;;;;;;;;4969345;28;20042;-72
2022/12/20 06:33:39;;;;;;;8.48;3.97;;;;;;;;;;4955351;28;20141;-71
2022/12/20 06:36:25;;;;;;;7.18;4.07;;;;;;;;;;4968458;28;20042;-70
2022/12/20 06:39:12;;;;;;;6.03;4.45;;;;;;;;;;4953572;28;20066;-70
2022/12/20 06:41:59;;;;;;;6.15;3.97;;;;;;;;;;4967018;28;20468;-70
2022/12/20 06:44:45;;;;;;;7.43;4.72;;;;;;;;;;4968871;28;20113;-70
2022/12/20 06:47:31;;;;;;;10.98;4.82;;;;;;;;;;4969996;28;20051;-71
2022/12/20 06:50:18;;;;;;;7.68;4.97;;;;;;;;;;4972330;28;20062;-71
2022/12/20 06:53:04;;;;;;;5.75;4.90;;;;;;;;;;4957274;28;20130;-74
2022/12/20 06:55:51;;;;;;;5.80;4.70;;;;;;;;;;4973783;28;20429;-70
2022/12/20 06:58:37;;;;;;;6.90;5.13;;;;;;;;;;4971956;28;20646;-70
2022/12/20 07:01:23;;;;;;;7.55;5.35;;;;;;;;;;4967630;28;20061;-70
2022/12/20 07:04:10;;;;;;;12.07;5.30;;;;;;;;;;4966952;28;20050;-71
2022/12/20 07:06:56;;;;;;;8.93;5.00;;;;;;;;;;4952270;28;20075;-71
2022/12/20 07:09:42;;;;;;;10.57;5.22;;;;;;;;;;4969449;28;20043;-70
2022/12/20 07:12:29;;;;;;;9.30;5.65;;;;;;;;;;4961109;28;20664;-70
2022/12/20 07:15:16;;;;;;;10.80;5.80;;;;;;;;;;4945173;28;20441;-71
2022/12/20 07:18:02;;;;;;;8.05;5.32;;;;;;;;;;4944336;28;20069;-70
2022/12/20 07:20:48;;;;;;;6.63;5.35;;;;;;;;;;4944085;28;20129;-70
2022/12/20 07:23:35;;;;;;;6.13;5.47;;;;;;;;;;4964861;28;20463;-70
2022/12/20 07:26:21;;;;;;;7.20;5.50;;;;;;;;;;4967396;28;20555;-70
2022/12/20 07:29:07;;;;;;;9.57;5.80;;;;;;;;;;4972155;28;20929;-70
2022/12/20 07:31:54;;;;;;;8.25;5.75;;;;;;;;;;4976522;28;20105;-70
2022/12/20 07:34:40;;;;;;;8.45;5.88;;;;;;;;;;4954986;28;20481;-70
2022/12/20 07:37:28;;;;;;;9.35;6.10;;;;;;;;;;4954677;28;20054;-70
2022/12/20 07:40:15;;;;;;;7.88;5.68;;;;;;;;;;4954604;28;20460;-70
2022/12/20 07:43:01;;;;;;;9.20;6.10;;;;;;;;;;4968447;28;20455;-70
2022/12/20 07:45:47;;;;;;;10.38;5.65;;;;;;;;;;4955781;28;20086;-70
2022/12/20 07:48:35;;;;;;;5.75;5.15;;;;;;;;;;4969506;28;20126;-70
2022/12/20 07:51:23;;;;;;;8.95;5.97;;;;;;;;;;4953398;28;20074;-70
2022/12/20 07:54:12;;;;;;;9.23;5.45;;;;;;;;;;4976305;28;20055;-71
2022/12/20 07:57:00;;;;;;;7.20;5.80;;;;;;;;;;4968706;28;20409;-71
2022/12/20 07:59:49;;;;;;;10.00;5.45;;;;;;;;;;4975892;28;20051;-70
2022/12/20 08:02:46;;;;;;;8.55;5.50;;;;;;;;;;4956016;28;20692;-71
2022/12/20 08:05:33;;;;;;;6.00;4.63;;;;;;;;;;4975460;28;20039;-71
2022/12/20 08:08:21;;;;;;;10.02;4.85;;;;;;;;;;4974714;28;20129;-70
2022/12/20 08:11:08;;;;;;;9.52;4.63;;;;;;;;;;4961005;28;20077;-71
2022/12/20 08:13:54;;;;;;;6.25;4.22;;;;;;;;;;4957033;28;20589;-71
2022/12/20 08:16:42;;;;;;;11.25;4.78;;;;;;;;;;4978839;28;20082;-70
2022/12/20 08:19:28;;;;;;;7.15;4.30;;;;;;;;;;4956487;28;20141;-71
2022/12/20 08:22:15;;;;;;;8.63;3.95;;;;;;;;;;4958337;28;20063;-70
2022/12/20 08:25:01;;;;;;;5.68;4.03;;;;;;;;;;4974302;28;20448;-70
2022/12/20 08:27:48;;;;;;;6.20;3.85;;;;;;;;;;4955573;28;20069;-70
2022/12/20 08:30:34;;;;;;;7.00;4.28;;;;;;;;;;4974026;28;21172;-70
2022/12/20 08:33:21;;;;;;;6.85;3.83;;;;;;;;;;4975084;28;20058;-70
2022/12/20 08:36:09;;;;;;;5.40;3.45;;;;;;;;;;4961523;28;20054;-70
2022/12/20 08:38:55;;;;;;;6.80;3.70;;;;;;;;;;4954589;28;20113;-71
2022/12/20 08:41:41;;;;;;;6.13;3.53;;;;;;;;;;4972720;28;20109;-70
2022/12/20 08:44:28;;;;;;;5.03;3.75;;;;;;;;;;4961191;28;20046;-71
2022/12/20 08:47:14;;;;;;;6.97;3.88;;;;;;;;;;4972331;28;20042;-70
2022/12/20 08:50:00;;;;;;;5.18;3.88;;;;;;;;;;4968824;28;20072;-70
2022/12/20 08:52:47;;;;;;;5.88;4.00;;;;;;;;;;4974306;28;20086;-71
2022/12/20 08:55:33;;;;;;;6.82;3.83;;;;;;;;;;4955422;28;20126;-70
2022/12/20 08:58:20;;;;;;;7.63;4.03;;;;;;;;;;4968018;28;20058;-70
2022/12/20 09:01:07;;;;;;;7.57;3.58;;;;;;;;;;4960342;28;20109;-70
2022/12/20 09:03:54;;;;;;;4.65;3.40;;;;;;;;;;4954821;28;20821;-71
2022/12/20 09:06:40;;;;;;;5.68;3.63;;;;;;;;;;4961821;28;20494;-70
2022/12/20 09:09:26;;;;;;;6.32;3.92;;;;;;;;;;4964916;28;20674;-71
2022/12/20 09:12:13;;;;;;;5.28;3.55;;;;;;;;;;4954916;28;20050;-70
2022/12/20 09:14:59;;;;;;;5.85;3.47;;;;;;;;;;4977258;28;20054;-71
2022/12/20 09:17:46;;;;;;;6.60;3.92;;;;;;;;;;4957882;28;20057;-71
2022/12/20 09:20:32;;;;;;;5.68;3.20;;;;;;;;;;4958401;28;20050;-70
2022/12/20 09:23:18;;;;;;;7.15;3.38;;;;;;;;;;4971982;28;20106;-71
2022/12/20 09:26:10;;;;;;;5.72;3.58;;;;;;;;;;4959543;28;20171;-71
2022/12/20 09:28:57;;;;;;;8.27;3.75;;;;;;;;;;4956292;28;20425;-71
2022/12/20 09:31:44;;;;;;;5.85;3.90;;;;;;;;;;4966301;28;20129;-70
2022/12/20 09:34:30;;;;;;;7.07;3.47;;;;;;;;;;4969088;28;20042;-71
2022/12/20 09:37:16;;;;;;;5.28;3.40;;;;;;;;;;4973234;28;20051;-70
2022/12/20 09:40:03;;;;;;;5.90;3.42;;;;;;;;;;4972885;28;20053;-71
2022/12/20 09:42:50;;;;;;;5.25;3.55;;;;;;;;;;4972585;28;20051;-70
2022/12/20 09:45:37;;;;;;;5.10;3.80;;;;;;;;;;4958336;28;20043;-71
2022/12/20 09:48:29;;;;;;;6.45;3.67;;;;;;;;;;4973804;28;20070;-70
2022/12/20 09:51:25;;;;;;;6.22;3.53;;;;;;;;;;4957280;28;20047;-70
2022/12/20 09:54:17;;;;;;;5.28;3.30;;;;;;;;;;4973332;28;20054;-71
2022/12/20 09:57:17;;;;;;;5.35;3.65;;;;;;;;;;4970551;28;20429;-71
2022/12/20 10:00:11;;;;;;;5.15;3.63;;;;;;;;;;4971357;28;20505;-70
2022/12/20 10:02:57;;;;;;;6.18;3.70;;;;;;;;;;4971841;28;20047;-71
2022/12/20 10:05:47;;;;;;;6.22;3.75;;;;;;;;;;4959795;28;20051;-70
2022/12/20 10:08:50;;;;;;;8.63;3.92;;;;;;;;;;4956072;28;20043;-69
2022/12/20 10:11:37;;;;;;;6.60;3.67;;;;;;;;;;4967208;28;20101;-70
2022/12/20 10:14:33;;;;;;;6.75;4.03;;;;;;;;;;4969861;28;20109;-70
2022/12/20 10:17:40;;;;;;;8.93;3.72;;;;;;;;;;4956212;28;20101;-71
2022/12/20 10:20:44;;;;;;;6.22;3.80;;;;;;;;;;4965246;28;20047;-70
2022/12/20 10:23:30;;;;;;;8.15;4.00;;;;;;;;;;4956115;28;20077;-70
2022/12/20 10:26:17;;;;;;;6.32;4.25;;;;;;;;;;4971402;28;20050;-70
2022/12/20 10:29:03;;;;;;;7.20;4.20;;;;;;;;;;4956402;28;20051;-70
2022/12/20 10:31:54;;;;;;;6.25;3.92;;;;;;;;;;4977190;28;20082;-70
2022/12/20 10:34:50;;;;;;;6.28;4.13;;;;;;;;;;4958953;28;20050;-71
2022/12/20 10:38:03;;;;;;;7.80;4.18;;;;;;;;;;5058385;27;20985;-70
2022/12/20 10:40:58;;;;;;;6.15;4.22;;;;;;;;;;5046310;28;20061;-72
2022/12/20 10:43:50;;;;;;;5.55;4.50;;;;;;;;;;5060797;28;20171;-70
2022/12/20 10:46:40;;;;;;;9.20;4.38;;;;;;;;;;5058481;28;20071;-70
2022/12/20 10:49:27;;;;;;;10.70;4.68;;;;;;;;;;5057330;28;20499;-70
2022/12/20 10:52:14;;;;;;;8.00;3.97;;;;;;;;;;5067374;28;20044;-69
2022/12/20 10:55:00;;;;;;;7.75;4.68;;;;;;;;;;5057354;28;20399;-70
2022/12/20 10:57:47;;;;;;;11.60;4.88;;;;;;;;;;5059700;28;20503;-70
2022/12/20 11:00:33;;;;;;;9.73;4.60;;;;;;;;;;5062340;28;20060;-70
2022/12/20 11:03:21;;;;;;;7.03;4.55;;;;;;;;;;5066497;28;20518;-69
2022/12/20 11:06:14;;;;;;;10.68;4.90;;;;;;;;;;5061959;28;20053;-71
2022/12/20 11:09:17;;;;;;;6.78;4.82;;;;;;;;;;5057830;28;20102;-70
2022/12/20 11:12:05;;;;;;;6.07;4.85;;;;;;;;;;5058589;28;20044;-70
2022/12/20 11:15:06;;;;;;;9.60;5.10;;;;;;;;;;5065630;28;20064;-70
2022/12/20 11:17:56;;;;;;;8.48;4.97;;;;;;;;;;5065186;28;20052;-69
2022/12/20 11:21:03;;;;;;;7.38;4.75;;;;;;;;;;5065015;28;20072;-69
2022/12/20 11:23:58;;;;;;;6.47;4.65;;;;;;;;;;5058388;28;20076;-70
2022/12/20 11:26:44;;;;;;;6.95;4.70;;;;;;;;;;5064201;28;20119;-70
2022/12/20 11:29:46;;;;;;;9.43;5.25;;;;;;;;;;5065843;28;20047;-70
2022/12/20 11:32:58;;;;;;;7.72;4.70;;;;;;;;;;5062580;28;20032;-70
2022/12/20 11:35:47;;;;;;;7.47;4.70;;;;;;;;;;5054206;28;20061;-70
2022/12/20 11:38:40;;;;;;;6.22;4.90;;;;;;;;;;5061055;28;20049;-71
2022/12/20 11:41:32;;;;;;;7.80;4.73;;;;;;;;;;5070451;28;20084;-70
2022/12/20 11:44:29;;;;;;;6.90;4.40;;;;;;;;;;5059114;28;20299;-70
2022/12/20 11:47:16;;;;;;;8.98;5.03;;;;;;;;;;5060197;28;20056;-71
2022/12/20 11:50:20;;;;;;;7.18;4.50;;;;;;;;;;5043331;28;20401;-70
2022/12/20 11:53:10;;;;;;;8.52;4.78;;;;;;;;;;5043750;28;20094;-69
2022/12/20 11:55:59;;;;;;;5.43;4.32;;;;;;;;;;5038768;28;20059;-69
2022/12/20 11:58:54;;;;;;;6.15;4.45;;;;;;;;;;5050035;28;20049;-69
2022/12/20 12:01:43;;;;;;;5.40;4.72;;;;;;;;;;5043274;28;20092;-71
2022/12/20 12:04:31;;;;;;;9.05;4.72;;;;;;;;;;5043986;28;20041;-70
2022/12/20 12:07:20;;;;;;;7.30;5.00;;;;;;;;;;5044858;28;20057;-70
2022/12/20 12:10:36;;;;;;;8.40;5.15;;;;;;;;;;5049783;28;20137;-70
2022/12/20 12:13:30;;;;;;;8.48;5.22;;;;;;;;;;5040883;28;20415;-70
2022/12/20 12:16:23;;;;;;;8.82;5.05;;;;;;;;;;5047573;28;20494;-70
2022/12/20 12:19:11;;;;;;;7.57;5.13;;;;;;;;;;5049274;28;20043;-70
2022/12/20 12:22:01;;;;;;;6.93;5.03;;;;;;;;;;5042846;28;20123;-71
2022/12/20 12:24:51;;;;;;;7.18;4.90;;;;;;;;;;5051379;28;20045;-70
2022/12/20 12:27:38;;;;;;;7.60;5.30;;;;;;;;;;5048621;28;20065;-70
2022/12/20 12:30:26;;;;;;;6.95;5.00;;;;;;;;;;5050316;28;20051;-70
2022/12/20 12:33:33;;;;;;;9.93;5.32;;;;;;;;;;5049548;28;20075;-74
2022/12/20 12:36:35;;;;;;;6.70;5.30;;;;;;;;;;5049632;28;20158;-74
2022/12/20 12:40:00;;;;;;;10.85;5.65;;;;;;;;;;5050218;28;20052;-74
2022/12/20 12:43:05;;;;;;;8.00;5.68;;;;;;;;;;4971716;28;20487;-74
2022/12/20 12:46:02;;;;;;;7.80;6.03;;;;;;;;;;4972988;28;20080;-74
2022/12/20 12:48:52;;;;;;;7.68;6.28;;;;;;;;;;5050336;28;21319;-73
2022/12/20 12:51:40;;;;;;;8.13;5.97;;;;;;;;;;5048060;28;20048;-74
2022/12/20 12:54:34;;;;;;;6.63;5.82;;;;;;;;;;5037919;28;20471;-73
2022/12/20 12:57:20;;;;;;;9.60;6.18;;;;;;;;;;5043794;28;20080;-74
2022/12/20 13:00:27;;;;;;;9.82;6.65;;;;;;;;;;5048930;28;20057;-73
2022/12/20 13:03:15;;;;;;;9.38;6.65;;;;;;;;;;5049766;28;20047;-74
2022/12/20 13:06:24;;;;;;;8.57;6.88;;;;;;;;;;5048143;28;20603;-74
2022/12/20 13:09:17;;;;;;;9.82;6.53;;;;;;;;;;5037974;28;20037;-74
2022/12/20 13:12:04;;;;;;;;;;;;;;;;;;5050714;28;20053;-72
2022/12/20 13:14:50;;;;;;;7.60;6.45;;;;;;;;;;5044825;28;19959;-72
2022/12/20 13:17:46;;;;;;;10.73;6.80;;;;;;;;;;5041881;28;20064;-72
2022/12/20 13:20:33;;;;;;;9.68;7.13;;;;;;;;;;5044923;28;20099;-73
2022/12/20 13:23:19;;;;;;;11.90;7.38;;;;;;;;;;5050450;28;20045;-73
2022/12/20 13:26:26;;;;;;;9.98;7.30;;;;;;;;;;5041777;28;20110;-73
2022/12/20 13:29:26;;;;;;;8.77;7.88;;;;;;;;;;5038419;28;20044;-72
2022/12/20 13:32:31;;;;;;;9.73;7.15;;;;;;;;;;5043148;28;20040;-70
2022/12/20 13:35:26;;;;;;;10.68;7.40;;;;;;;;;;5045731;28;20045;-69
2022/12/20 13:38:32;;;;;;;11.82;8.00;;;;;;;;;;5049516;28;20111;-69
2022/12/20 13:41:33;;;;;;;10.32;7.80;;;;;;;;;;5047875;28;20077;-70
2022/12/20 13:44:26;;;;;;;9.68;7.53;;;;;;;;;;5039648;28;20041;-70
2022/12/20 13:47:42;;;;;;;9.75;7.68;;;;;;;;;;5047887;28;20052;-70
2022/12/20 13:50:37;;;;;;;13.98;8.43;;;;;;;;;;5033933;28;20147;-71
2022/12/20 13:53:25;;;;;;;12.60;8.50;;;;;;;;;;5040089;28;20045;-69
2022/12/20 13:56:27;;;;;;;10.38;8.00;;;;;;;;;;5041385;28;20045;-69
2022/12/20 13:59:15;;;;;;;10.05;7.95;;;;;;;;;;5043066;28;20398;-69
2022/12/20 14:02:03;;;;;;;14.02;8.43;;;;;;;;;;5043555;28;20053;-70
2022/12/20 14:04:55;;;;;;;11.80;9.20;;;;;;;;;;5042833;28;20051;-69
2022/12/20 14:07:42;;;;;;;10.98;9.30;;;;;;;;;;5047311;28;20059;-69
2022/12/20 14:10:29;;;;;;;11.27;9.35;;;;;;;;;;5048028;28;20074;-70
2022/12/20 14:13:18;;;;;;;13.00;9.13;;;;;;;;;;5046739;28;20078;-69
2022/12/20 14:16:15;;;;;;;13.70;10.25;;;;;;;;;;5046619;28;20049;-69
2022/12/20 14:19:06;;;;;;;10.70;9.60;;;;;;;;;;5040442;28;20049;-69
2022/12/20 14:21:52;;;;;;;11.32;10.13;;;;;;;;;;5044649;28;20045;-69
2022/12/20 14:24:40;;;;;;;11.27;10.05;;;;;;;;;;5047992;28;20049;-69
2022/12/20 14:27:29;;;;;;;12.00;10.65;;;;;;;;;;5049807;28;20072;-69
2022/12/20 14:30:32;;;;;;;15.18;11.07;;;;;;;;;;5039955;28;20568;-70
2022/12/20 14:33:19;;;;;;;14.07;10.80;;;;;;;;;;5051860;28;20056;-69
2022/12/20 14:36:16;;;;;;;12.40;11.10;;;;;;;;;;5046499;28;20109;-69
2022/12/20 14:39:20;;;;;;;12.50;11.13;;;;;;;;;;5043681;28;20084;-70
2022/12/20 14:42:07;;;;;;;13.20;10.27;;;;;;;;;;5029769;28;20103;-69
2022/12/20 14:45:01;;;;;;;13.70;11.40;;;;;;;;;;5047735;28;20123;-70
2022/12/20 14:47:56;;;;;;;12.98;11.18;;;;;;;;;;5042271;28;20049;-69
2022/12/20 14:50:51;;;;;;;12.27;10.98;;;;;;;;;;5042964;28;20050;-70
2022/12/20 14:53:38;;;;;;;12.23;11.02;;;;;;;;;;5044010;28;20049;-69
2022/12/20 14:56:25;;;;;;;12.65;11.35;;;;;;;;;;5042288;28;20065;-70
2022/12/20 14:59:15;;;;;;;13.30;11.63;;;;;;;;;;5047064;28;20183;-70
2022/12/20 15:02:22;;;;;;;14.40;11.60;;;;;;;;;;5048306;28;20063;-70
2022/12/20 15:05:09;;;;;;;16.20;11.25;;;;;;;;;;5033755;28;20631;-70
2022/12/20 15:07:55;;;;;;;13.30;11.90;;;;;;;;;;5037697;28;20067;-70
2022/12/20 15:10:52;;;;;;;13.32;12.02;;;;;;;;;;5046606;28;20069;-70
2022/12/20 15:13:41;;;;;;;13.30;11.90;;;;;;;;;;5047207;28;20127;-70
2022/12/20 15:16:29;;;;;;;14.57;11.43;;;;;;;;;;5038368;28;20430;-70
2022/12/20 15:19:15;;;;;;;15.00;11.32;;;;;;;;;;5040382;28;20048;-70
2022/12/20 15:22:02;;;;;;;13.88;12.10;;;;;;;;;;5036094;28;20065;-70
2022/12/20 15:24:48;;;;;;;16.20;12.57;;;;;;;;;;5043220;28;20441;-70
2022/12/20 15:27:34;;;;;;;15.70;11.40;;;;;;;;;;5042932;28;20435;-70
2022/12/20 15:30:21;;;;;;;14.55;12.20;;;;;;;;;;5047559;28;20564;-70
2022/12/20 15:33:08;;;;;;;14.65;12.57;;;;;;;;;;5041771;28;20040;-70
2022/12/20 15:35:55;;;;;;;17.83;12.73;;;;;;;;;;5045174;28;20068;-70
2022/12/20 15:38:41;;;;;;;14.55;12.82;;;;;;;;;;5042708;28;20706;-70
2022/12/20 15:41:34;;;;;;;15.10;12.55;;;;;;;;;;5043438;28;20954;-71
2022/12/20 15:44:20;;;;;;;;;;;;;;;;;;5047264;28;20399;-70
2022/12/20 15:47:10;;;;;;;15.77;11.85;;;;;;;;;;5036715;28;19917;-70
2022/12/20 15:49:56;;;;;;;13.32;12.02;;;;;;;;;;5043505;28;20064;-70
2022/12/20 15:52:43;;;;;;;13.82;12.43;;;;;;;;;;5046705;28;20049;-69
2022/12/20 15:55:29;;;;;;;17.17;12.70;;;;;;;;;;5045965;28;20048;-70
2022/12/20 15:58:16;;;;;;;13.80;12.50;;;;;;;;;;5049785;28;20045;-70
2022/12/20 16:01:02;;;;;;;14.68;13.18;;;;;;;;;;5043266;28;20048;-70
2022/12/20 16:03:48;;;;;;;14.00;12.60;;;;;;;;;;5038204;28;20507;-70
2022/12/20 16:06:35;;;;;;;14.38;12.95;;;;;;;;;;5046381;28;20140;-70
2022/12/20 16:09:24;;;;;;;15.63;13.82;;;;;;;;;;5039069;28;20132;-69
2022/12/20 16:12:32;;;;;;;15.00;13.40;;;;;;;;;;5039537;28;20119;-70
2022/12/20 16:15:19;;;;;;;14.32;12.88;;;;;;;;;;5039276;28;20064;-70
2022/12/20 16:18:06;;;;;;;15.68;14.05;;;;;;;;;;5040274;28;20048;-70
2022/12/20 16:20:53;;;;;;;16.83;15.10;;;;;;;;;;5042584;28;20094;-70
2022/12/20 16:23:39;;;;;;;15.82;14.23;;;;;;;;;;5034548;28;20080;-70
2022/12/20 16:26:25;;;;;;;18.58;16.17;;;;;;;;;;5025305;28;20049;-73
2022/12/20 16:29:12;;;;;;;16.60;15.00;;;;;;;;;;5039862;28;20045;-72
2022/12/20 16:31:58;;;;;;;17.65;15.63;;;;;;;;;;5049804;28;20045;-72
2022/12/20 16:34:45;;;;;;;17.30;15.23;;;;;;;;;;5047172;28;20060;-74
2022/12/20 16:37:31;;;;;;;20.65;16.52;;;;;;;;;;5046695;28;20045;-72
2022/12/20 16:40:18;;;;;;;18.48;16.42;;;;;;;;;;5037545;28;20044;-73
2022/12/20 16:43:04;;;;;;;18.52;16.25;;;;;;;;;;5036031;28;20049;-72
2022/12/20 16:45:50;;;;;;;19.77;16.88;;;;;;;;;;5030656;28;20450;-72
2022/12/20 16:48:37;;;;;;;19.73;17.23;;;;;;;;;;5038992;28;20403;-73
2022/12/20 16:51:25;;;;;;;20.08;17.98;;;;;;;;;;5034642;28;20102;-71
2022/12/20 16:54:13;;;;;;;24.08;17.80;;;;;;;;;;5043489;28;20106;-73
2022/12/20 16:56:59;;;;;;;21.77;18.42;;;;;;;;;;5038356;28;20048;-72
2022/12/20 16:59:45;;;;;;;22.08;19.65;;;;;;;;;;5035700;28;20053;-72
2022/12/20 17:02:33;;;;;;;26.33;19.67;;;;;;;;;;5037459;28;20063;-73